Time;durP1;ratioP1;P1;durP2;ratioP2;P2;SDS_P1;SDS_P2;PMS_P1;PMS_P2;Temp;Humidity;BMP_temperature;BMP_pressure;BME280_temperature;BME280_humidity;BME280_pressure;Samples;Min_cycle;Max_cycle;Signal;HPM_P1;HPM_P2
2024/01/14 00:00:34;;;;;;;25.38;20.05;;;3.90;99.90;;;;;;5035817;28;20121;-64
2024/01/14 00:03:01;;;;;;;26.20;20.17;;;3.90;99.90;;;;;;5035235;28;20103;-64
2024/01/14 00:05:28;;;;;;;25.48;19.98;;;3.90;99.90;;;;;;5035627;28;20128;-68
2024/01/14 00:07:56;;;;;;;27.00;20.33;;;3.90;99.90;;;;;;5035696;28;20463;-65
2024/01/14 00:10:23;;;;;;;26.77;19.88;;;3.90;99.90;;;;;;5034901;28;20099;-64
2024/01/14 00:12:50;;;;;;;25.33;20.08;;;3.90;99.90;;;;;;5035303;28;20444;-61
2024/01/14 00:15:20;;;;;;;24.48;20.20;;;3.90;99.90;;;;;;5035227;28;20083;-61
2024/01/14 00:17:47;;;;;;;25.70;19.65;;;3.90;99.90;;;;;;5035318;28;20513;-62
2024/01/14 00:20:14;;;;;;;25.85;19.83;;;3.90;99.90;;;;;;5034390;28;20049;-64
2024/01/14 00:22:41;;;;;;;26.63;20.73;;;3.90;99.90;;;;;;5035169;28;20045;-63
2024/01/14 00:25:08;;;;;;;26.05;20.63;;;3.90;99.90;;;;;;5034837;28;20045;-63
2024/01/14 00:27:35;;;;;;;26.90;21.38;;;3.90;99.90;;;;;;5035402;28;20475;-63
2024/01/14 00:30:02;;;;;;;26.17;20.00;;;3.90;99.90;;;;;;5033697;28;20383;-64
2024/01/14 00:32:29;;;;;;;27.45;20.83;;;3.90;99.90;;;;;;5034948;28;20045;-63
2024/01/14 00:34:55;;;;;;;25.55;19.52;;;3.90;99.90;;;;;;5034810;28;20410;-63
2024/01/14 00:37:23;;;;;;;23.17;18.58;;;3.90;99.90;;;;;;5035166;28;20042;-63
2024/01/14 00:39:50;;;;;;;23.98;19.08;;;3.90;99.90;;;;;;5035118;28;20037;-63
2024/01/14 00:42:17;;;;;;;26.02;19.55;;;3.90;99.90;;;;;;5034839;28;20045;-64
2024/01/14 00:44:44;;;;;;;24.10;20.10;;;4.00;99.90;;;;;;5033439;28;20037;-63
2024/01/14 00:47:10;;;;;;;24.95;20.50;;;4.00;99.90;;;;;;5034642;28;20041;-62
2024/01/14 00:49:37;;;;;;;27.27;19.67;;;4.00;99.90;;;;;;5034529;28;20550;-64
2024/01/14 00:52:04;;;;;;;24.40;19.38;;;4.00;99.90;;;;;;5034487;28;20545;-64
2024/01/14 00:54:31;;;;;;;25.52;19.35;;;4.00;99.90;;;;;;5034451;28;20056;-63
2024/01/14 00:56:58;;;;;;;24.63;19.23;;;4.00;99.90;;;;;;5033051;28;20041;-63
2024/01/14 00:59:25;;;;;;;23.27;18.40;;;4.00;99.90;;;;;;5034608;28;20095;-63
2024/01/14 01:01:52;;;;;;;25.73;19.75;;;3.90;99.90;;;;;;5034372;28;20398;-63
2024/01/14 01:04:18;;;;;;;24.60;18.45;;;4.00;99.90;;;;;;5034129;28;20049;-63
2024/01/14 01:06:45;;;;;;;25.23;19.20;;;3.90;99.90;;;;;;5034666;28;20069;-64
2024/01/14 01:09:12;;;;;;;24.02;19.20;;;3.90;99.90;;;;;;5034270;28;20045;-64
2024/01/14 01:11:39;;;;;;;25.50;18.92;;;3.80;99.90;;;;;;5033945;28;20048;-64
2024/01/14 01:14:06;;;;;;;24.13;18.75;;;3.80;99.90;;;;;;5033167;28;20095;-63
2024/01/14 01:16:33;;;;;;;24.05;18.20;;;3.80;99.90;;;;;;5033505;28;20041;-63
2024/01/14 01:19:00;;;;;;;23.52;18.33;;;3.80;99.90;;;;;;5033920;28;20540;-63
2024/01/14 01:21:27;;;;;;;22.08;18.42;;;3.80;99.90;;;;;;5034310;28;20454;-62
2024/01/14 01:23:54;;;;;;;24.35;19.02;;;3.70;99.90;;;;;;5034089;28;20045;-63
2024/01/14 01:26:21;;;;;;;24.63;18.00;;;3.80;99.90;;;;;;5034175;28;20045;-63
2024/01/14 01:28:48;;;;;;;22.35;17.42;;;3.70;99.90;;;;;;5033939;28;20064;-62
2024/01/14 01:31:14;;;;;;;25.25;19.25;;;3.70;99.90;;;;;;5034052;28;20041;-64
2024/01/14 01:33:56;;;;;;;23.38;18.58;;;3.70;99.90;;;;;;5029263;28;20390;-64
2024/01/14 01:36:23;;;;;;;28.08;19.65;;;3.70;99.90;;;;;;5031888;28;20041;-63
2024/01/14 01:38:50;;;;;;;25.80;18.58;;;3.80;99.90;;;;;;5033791;28;20463;-63
2024/01/14 01:41:17;;;;;;;23.70;18.60;;;3.80;99.90;;;;;;5032468;28;20033;-64
2024/01/14 01:43:43;;;;;;;22.75;17.95;;;3.80;99.90;;;;;;5033555;28;20129;-64
2024/01/14 01:46:10;;;;;;;23.77;17.98;;;3.80;99.90;;;;;;5033488;28;20037;-64
2024/01/14 01:48:37;;;;;;;23.80;18.50;;;3.90;99.90;;;;;;5034036;28;20062;-64
2024/01/14 01:51:04;;;;;;;25.35;18.60;;;3.80;99.90;;;;;;5032651;28;20498;-64
2024/01/14 01:53:31;;;;;;;25.05;18.77;;;3.90;99.90;;;;;;5033596;28;20072;-63
2024/01/14 01:55:58;;;;;;;21.65;16.88;;;3.90;99.90;;;;;;5033521;28;20037;-64
2024/01/14 01:58:24;;;;;;;21.92;18.00;;;3.90;99.90;;;;;;5033399;28;20498;-64
2024/01/14 02:00:51;;;;;;;23.75;17.75;;;3.80;99.90;;;;;;5033501;28;20041;-64
2024/01/14 02:03:18;;;;;;;23.85;17.88;;;3.80;99.90;;;;;;5033340;28;20442;-64
2024/01/14 02:05:45;;;;;;;25.15;18.35;;;3.80;99.90;;;;;;5033576;28;20041;-63
2024/01/14 02:08:12;;;;;;;25.70;18.58;;;3.70;99.90;;;;;;5032146;28;20057;-64
2024/01/14 02:10:39;;;;;;;25.48;18.50;;;3.70;99.90;;;;;;5033258;28;20052;-62
2024/01/14 02:13:06;;;;;;;23.58;18.13;;;3.70;99.90;;;;;;5033267;28;20124;-62
2024/01/14 02:15:33;;;;;;;25.38;18.25;;;3.70;99.90;;;;;;5033479;28;20362;-62
2024/01/14 02:18:00;;;;;;;23.92;18.75;;;3.60;99.90;;;;;;5031966;28;20391;-62
2024/01/14 02:20:27;;;;;;;24.13;18.45;;;3.70;99.90;;;;;;5033058;28;20064;-62
2024/01/14 02:22:54;;;;;;;25.95;19.88;;;3.60;99.90;;;;;;5033256;28;20046;-62
2024/01/14 02:25:20;;;;;;;22.83;18.40;;;3.60;99.90;;;;;;5033587;28;20107;-62
2024/01/14 02:27:47;;;;;;;25.90;19.02;;;3.60;99.90;;;;;;5033241;28;20356;-62
2024/01/14 02:30:14;;;;;;;24.95;18.35;;;3.60;99.90;;;;;;5033029;28;20137;-62
2024/01/14 02:32:41;;;;;;;22.85;18.40;;;3.60;99.90;;;;;;5032767;28;20080;-62
2024/01/14 02:35:08;;;;;;;25.33;19.13;;;3.60;99.90;;;;;;5032940;28;20475;-62
2024/01/14 02:37:35;;;;;;;25.52;18.08;;;3.60;99.90;;;;;;5033073;28;20045;-62
2024/01/14 02:40:02;;;;;;;24.23;18.95;;;3.60;99.90;;;;;;5014972;28;20406;-61
2024/01/14 02:42:31;;;;;;;27.33;19.08;;;3.60;99.90;;;;;;5032969;28;20069;-60
2024/01/14 02:44:58;;;;;;;23.55;18.67;;;3.70;99.90;;;;;;5032790;28;20044;-61
2024/01/14 02:47:24;;;;;;;26.40;18.73;;;3.60;99.90;;;;;;5032940;28;20045;-63
2024/01/14 02:49:51;;;;;;;27.15;19.70;;;3.60;99.90;;;;;;5032103;28;20050;-65
2024/01/14 02:52:19;;;;;;;26.73;18.85;;;3.70;99.90;;;;;;5033260;28;20045;-66
2024/01/14 02:54:48;;;;;;;25.48;19.13;;;3.70;99.90;;;;;;5031788;28;20042;-65
2024/01/14 02:57:15;;;;;;;23.40;18.23;;;3.70;99.90;;;;;;5033247;28;20348;-64
2024/01/14 02:59:41;;;;;;;22.90;17.77;;;3.70;99.90;;;;;;5031604;28;20115;-64
2024/01/14 03:02:08;;;;;;;23.90;18.85;;;3.70;99.90;;;;;;5032316;28;20097;-65
2024/01/14 03:04:35;;;;;;;29.92;19.63;;;3.70;99.90;;;;;;5032614;28;20112;-65
2024/01/14 03:07:03;;;;;;;26.05;19.42;;;3.70;99.90;;;;;;5032561;28;20041;-64
2024/01/14 03:09:30;;;;;;;25.70;19.30;;;3.80;99.90;;;;;;5032597;28;20087;-64
2024/01/14 03:11:57;;;;;;;24.60;18.38;;;3.80;99.90;;;;;;5032855;28;20033;-65
2024/01/14 03:14:23;;;;;;;25.83;19.35;;;3.70;99.90;;;;;;5032623;28;20038;-65
2024/01/14 03:16:50;;;;;;;26.42;19.15;;;3.70;99.90;;;;;;5032950;28;20049;-65
2024/01/14 03:19:17;;;;;;;24.80;19.88;;;3.70;99.90;;;;;;5031431;28;20101;-65
2024/01/14 03:21:45;;;;;;;27.13;19.83;;;3.70;99.90;;;;;;5034539;28;20048;-64
2024/01/14 03:24:11;;;;;;;27.20;21.33;;;3.70;99.90;;;;;;5035280;28;20048;-65
2024/01/14 03:26:38;;;;;;;29.58;20.02;;;3.70;99.90;;;;;;5034786;28;20509;-65
2024/01/14 03:29:05;;;;;;;29.48;21.17;;;3.70;99.90;;;;;;5035151;28;20095;-66
2024/01/14 03:31:32;;;;;;;25.65;19.67;;;3.70;99.90;;;;;;5035152;28;20107;-63
2024/01/14 03:33:59;;;;;;;28.15;20.27;;;3.70;99.90;;;;;;5036297;28;20103;-64
2024/01/14 03:36:27;;;;;;;26.83;19.77;;;3.70;99.90;;;;;;5036102;28;20054;-65
2024/01/14 03:38:54;;;;;;;27.60;19.80;;;3.70;99.90;;;;;;5035710;28;20067;-66
2024/01/14 03:41:21;;;;;;;27.65;20.48;;;3.60;99.90;;;;;;5034699;28;20079;-65
2024/01/14 03:43:47;;;;;;;28.00;18.70;;;3.60;99.90;;;;;;5035824;28;20467;-66
2024/01/14 03:46:14;;;;;;;27.10;19.70;;;3.60;99.90;;;;;;5035840;28;20498;-66
2024/01/14 03:48:41;;;;;;;27.73;19.65;;;3.60;99.90;;;;;;5034708;28;20073;-66
2024/01/14 03:51:08;;;;;;;28.20;19.58;;;3.60;99.90;;;;;;5036036;28;20053;-65
2024/01/14 03:53:35;;;;;;;28.60;19.95;;;3.60;99.90;;;;;;5034290;28;20136;-65
2024/01/14 03:56:02;;;;;;;30.77;21.35;;;3.60;99.90;;;;;;5018099;28;20081;-65
2024/01/14 03:58:29;;;;;;;27.45;19.50;;;3.60;99.90;;;;;;5035631;28;20045;-65
2024/01/14 04:00:55;;;;;;;27.35;20.58;;;3.60;99.90;;;;;;5034186;28;20041;-65
2024/01/14 04:03:22;;;;;;;29.13;20.77;;;3.60;99.90;;;;;;5035240;28;20037;-65
2024/01/14 04:05:49;;;;;;;30.15;21.40;;;3.60;99.90;;;;;;5035455;28;20049;-65
2024/01/14 04:08:17;;;;;;;26.38;19.63;;;3.60;99.90;;;;;;5035747;28;20060;-62
2024/01/14 04:10:44;;;;;;;28.65;20.77;;;3.60;99.90;;;;;;5034026;28;20418;-64
2024/01/14 04:13:10;;;;;;;28.23;20.30;;;3.60;99.90;;;;;;5035482;28;20038;-64
2024/01/14 04:15:37;;;;;;;30.90;20.17;;;3.60;99.90;;;;;;5035386;28;20211;-64
2024/01/14 04:18:05;;;;;;;28.98;20.10;;;3.70;99.90;;;;;;5035568;28;20146;-64
2024/01/14 04:20:34;;;;;;;30.48;20.08;;;3.70;99.90;;;;;;5035135;28;20067;-63
2024/01/14 04:23:01;;;;;;;30.48;20.52;;;3.70;99.90;;;;;;5033889;28;20045;-62
2024/01/14 04:25:28;;;;;;;28.40;20.63;;;3.70;99.90;;;;;;5035033;28;20044;-61
2024/01/14 04:27:57;;;;;;;29.73;21.27;;;3.70;99.90;;;;;;5035407;28;20462;-63
2024/01/14 04:30:24;;;;;;;30.10;20.65;;;3.70;99.90;;;;;;5035045;28;20045;-63
2024/01/14 04:32:51;;;;;;;28.88;20.83;;;3.70;99.90;;;;;;5034717;28;20072;-63
2024/01/14 04:35:18;;;;;;;27.20;20.05;;;3.70;99.90;;;;;;5034901;28;20412;-64
2024/01/14 04:37:45;;;;;;;29.70;20.35;;;3.70;99.90;;;;;;5034583;28;20506;-64
2024/01/14 04:40:12;;;;;;;29.23;20.02;;;3.70;99.90;;;;;;5034749;28;20049;-64
2024/01/14 04:42:38;;;;;;;28.27;19.80;;;3.70;99.90;;;;;;5035029;28;20434;-63
2024/01/14 04:45:05;;;;;;;30.67;20.48;;;3.70;99.90;;;;;;5033586;28;20478;-64
2024/01/14 04:47:32;;;;;;;26.92;20.50;;;3.70;99.90;;;;;;5034670;28;20402;-63
2024/01/14 04:50:02;;;;;;;28.35;19.70;;;3.70;99.90;;;;;;5033298;28;20048;-64
2024/01/14 04:52:29;;;;;;;26.92;19.33;;;3.70;99.90;;;;;;5033546;28;20063;-65
2024/01/14 04:54:56;;;;;;;29.13;20.85;;;3.70;99.90;;;;;;5034468;28;20501;-65
2024/01/14 04:57:23;;;;;;;28.05;19.83;;;3.70;99.90;;;;;;5033552;28;20033;-65
2024/01/14 04:59:50;;;;;;;28.02;20.65;;;3.80;99.90;;;;;;5034274;28;20446;-64
2024/01/14 05:02:16;;;;;;;28.25;18.98;;;3.70;99.90;;;;;;5034505;28;20403;-63
2024/01/14 05:04:44;;;;;;;31.33;19.25;;;3.70;99.90;;;;;;5034396;28;20046;-64
2024/01/14 05:07:11;;;;;;;28.42;19.50;;;3.70;99.90;;;;;;5034563;28;20061;-64
2024/01/14 05:09:37;;;;;;;29.13;19.67;;;3.70;99.90;;;;;;5034378;28;20546;-63
2024/01/14 05:12:04;;;;;;;28.50;19.23;;;3.70;99.90;;;;;;5034317;28;20037;-64
2024/01/14 05:14:31;;;;;;;31.30;20.20;;;3.70;99.90;;;;;;5034327;28;20045;-63
2024/01/14 05:16:58;;;;;;;27.02;19.17;;;3.70;99.90;;;;;;5034043;28;20091;-63
2024/01/14 05:19:25;;;;;;;27.52;19.20;;;3.70;99.90;;;;;;5032598;28;20057;-63
2024/01/14 05:21:53;;;;;;;29.75;19.42;;;3.70;99.90;;;;;;5034494;28;20402;-64
2024/01/14 05:24:20;;;;;;;29.52;19.63;;;3.70;99.90;;;;;;5033548;28;20072;-63
2024/01/14 05:26:47;;;;;;;28.58;19.23;;;3.70;99.90;;;;;;5034122;28;20069;-63
2024/01/14 05:29:14;;;;;;;28.77;19.05;;;3.70;99.90;;;;;;5033012;28;20447;-63
2024/01/14 05:31:41;;;;;;;28.55;19.90;;;3.70;99.90;;;;;;5033449;28;20038;-62
2024/01/14 05:34:08;;;;;;;30.58;19.30;;;3.70;99.90;;;;;;5033308;28;20121;-63
2024/01/14 05:36:36;;;;;;;26.75;18.50;;;3.60;99.90;;;;;;5033691;28;20045;-62
2024/01/14 05:39:04;;;;;;;30.02;19.35;;;3.60;99.90;;;;;;5033460;28;20065;-61
2024/01/14 05:41:31;;;;;;;29.30;19.38;;;3.60;99.90;;;;;;5033468;28;20065;-61
2024/01/14 05:43:58;;;;;;;30.42;19.73;;;3.50;99.90;;;;;;5032946;28;20458;-62
2024/01/14 05:46:24;;;;;;;27.20;18.98;;;3.50;99.90;;;;;;5033667;28;20043;-62
2024/01/14 05:48:51;;;;;;;30.27;18.95;;;3.60;99.90;;;;;;5033744;28;20076;-62
2024/01/14 05:51:18;;;;;;;28.02;19.63;;;3.60;99.90;;;;;;5033417;28;20049;-63
2024/01/14 05:53:45;;;;;;;29.63;19.92;;;3.60;99.90;;;;;;5033456;28;20379;-63
2024/01/14 05:56:12;;;;;;;30.15;19.80;;;3.60;99.90;;;;;;5032571;28;20115;-62
2024/01/14 05:58:39;;;;;;;29.10;18.90;;;3.50;99.90;;;;;;5032306;28;20052;-63
2024/01/14 06:01:06;;;;;;;26.05;18.95;;;3.60;99.90;;;;;;5033350;28;20048;-63
2024/01/14 06:03:32;;;;;;;27.70;19.23;;;3.60;99.90;;;;;;5015551;28;20041;-62
2024/01/14 06:05:59;;;;;;;29.02;19.58;;;3.60;99.90;;;;;;5033603;28;20128;-62
2024/01/14 06:08:26;;;;;;;29.77;19.15;;;3.60;99.90;;;;;;5033419;28;20038;-62
2024/01/14 06:10:53;;;;;;;33.70;20.45;;;3.70;99.90;;;;;;5032440;28;20050;-62
2024/01/14 06:13:20;;;;;;;30.10;19.25;;;3.60;99.90;;;;;;5033767;28;20414;-63
2024/01/14 06:15:47;;;;;;;29.05;19.35;;;3.70;99.90;;;;;;5033630;28;20048;-63
2024/01/14 06:18:14;;;;;;;26.83;18.90;;;3.60;99.90;;;;;;5033631;28;20120;-63
2024/01/14 06:20:40;;;;;;;30.95;20.10;;;3.60;99.90;;;;;;5033278;28;20053;-63
2024/01/14 06:23:08;;;;;;;30.30;19.80;;;3.60;99.90;;;;;;5033299;28;20046;-63
2024/01/14 06:25:35;;;;;;;28.70;19.25;;;3.60;99.90;;;;;;5033533;28;20041;-63
2024/01/14 06:28:02;;;;;;;30.08;19.45;;;3.50;99.90;;;;;;5033653;28;20116;-62
2024/01/14 06:30:29;;;;;;;29.10;20.40;;;3.50;99.90;;;;;;5033532;28;20033;-63
2024/01/14 06:32:56;;;;;;;31.38;20.27;;;3.60;99.90;;;;;;5033647;28;20124;-63
2024/01/14 06:35:23;;;;;;;29.98;20.17;;;3.60;99.90;;;;;;5033016;28;20041;-63
2024/01/14 06:37:50;;;;;;;32.80;20.13;;;3.60;99.90;;;;;;5033301;28;20124;-63
2024/01/14 06:40:17;;;;;;;28.52;19.10;;;3.60;99.90;;;;;;5032999;28;20044;-63
2024/01/14 06:42:54;;;;;;;30.60;19.80;;;3.60;99.90;;;;;;5033457;28;20544;-63
2024/01/14 06:45:21;;;;;;;27.48;19.48;;;3.60;99.90;;;;;;5033038;28;20048;-63
2024/01/14 06:47:48;;;;;;;30.15;20.35;;;3.60;99.90;;;;;;5033149;28;20072;-63
2024/01/14 06:50:15;;;;;;;32.95;20.65;;;3.60;99.90;;;;;;5032994;28;20052;-62
2024/01/14 06:52:42;;;;;;;29.38;19.75;;;3.60;99.90;;;;;;5031668;28;20037;-62
2024/01/14 06:55:09;;;;;;;31.80;20.38;;;3.60;99.90;;;;;;5033965;28;20095;-63
2024/01/14 06:57:36;;;;;;;29.75;20.30;;;3.60;99.90;;;;;;5037033;28;20064;-63
2024/01/14 07:00:08;;;;;;;29.33;19.63;;;3.60;99.90;;;;;;5035623;28;20049;-63
2024/01/14 07:02:35;;;;;;;30.42;19.95;;;3.70;99.90;;;;;;5035287;28;20369;-61
2024/01/14 07:05:03;;;;;;;30.52;19.45;;;3.70;99.90;;;;;;5036580;28;20053;-61
2024/01/14 07:07:29;;;;;;;32.45;21.00;;;3.70;99.90;;;;;;5036761;28;20049;-61
2024/01/14 07:09:56;;;;;;;33.05;20.02;;;3.60;99.90;;;;;;5036480;28;20375;-61
2024/01/14 07:12:23;;;;;;;33.38;20.45;;;3.60;99.90;;;;;;5036437;28;20052;-61
2024/01/14 07:14:51;;;;;;;31.73;20.35;;;3.60;99.90;;;;;;5036833;28;20107;-61
2024/01/14 07:17:19;;;;;;;29.88;20.08;;;3.60;99.90;;;;;;5035325;28;20451;-61
2024/01/14 07:19:45;;;;;;;27.25;19.08;;;3.70;99.90;;;;;;5036285;28;20061;-61
2024/01/14 07:22:12;;;;;;;29.40;19.58;;;3.70;99.90;;;;;;5018646;28;20128;-61
2024/01/14 07:24:39;;;;;;;32.10;20.27;;;3.70;99.90;;;;;;5036322;28;20120;-61
2024/01/14 07:27:06;;;;;;;28.55;19.60;;;3.70;99.90;;;;;;5036385;28;20046;-61
2024/01/14 07:29:33;;;;;;;30.17;20.13;;;3.70;99.90;;;;;;5034833;28;20497;-61
2024/01/14 07:32:00;;;;;;;29.88;19.48;;;3.70;99.90;;;;;;5036189;28;20376;-60
2024/01/14 07:34:31;;;;;;;32.10;20.92;;;3.70;99.90;;;;;;5034819;28;20053;-60
2024/01/14 07:36:58;;;;;;;31.90;20.42;;;3.70;99.90;;;;;;5034720;28;20368;-60
2024/01/14 07:39:25;;;;;;;30.35;19.42;;;3.70;99.90;;;;;;5019296;28;20106;-60
2024/01/14 07:41:52;;;;;;;31.67;21.25;;;3.70;99.90;;;;;;5016192;28;20046;-59
2024/01/14 07:44:20;;;;;;;29.80;20.17;;;3.70;99.90;;;;;;5016303;28;20088;-60
2024/01/14 07:46:46;;;;;;;31.63;19.48;;;3.60;99.90;;;;;;5015984;28;20042;-60
2024/01/14 07:49:13;;;;;;;29.70;19.77;;;3.60;99.90;;;;;;5015815;28;20038;-60
2024/01/14 07:51:40;;;;;;;29.10;18.33;;;3.60;99.90;;;;;;5016010;28;20050;-60
2024/01/14 07:54:07;;;;;;;28.70;19.50;;;3.70;99.90;;;;;;5016096;28;20057;-60
2024/01/14 07:56:34;;;;;;;31.52;19.70;;;3.60;99.90;;;;;;5016301;28;20535;-60
2024/01/14 07:59:01;;;;;;;28.35;19.45;;;3.60;99.90;;;;;;5015872;28;20100;-59
2024/01/14 08:01:30;;;;;;;32.78;20.23;;;3.60;99.90;;;;;;5015906;28;20422;-61
2024/01/14 08:03:57;;;;;;;26.85;18.25;;;3.60;99.90;;;;;;5015649;28;20046;-64
2024/01/14 08:06:24;;;;;;;31.42;20.52;;;3.60;99.90;;;;;;5015035;28;20125;-63
2024/01/14 08:08:51;;;;;;;31.40;21.20;;;3.60;99.90;;;;;;5015816;28;20042;-63
2024/01/14 08:11:18;;;;;;;30.75;19.65;;;3.60;99.90;;;;;;5015895;28;20041;-61
2024/01/14 08:13:45;;;;;;;30.45;19.50;;;3.60;99.90;;;;;;5015874;28;20479;-61
2024/01/14 08:16:12;;;;;;;31.75;20.05;;;3.60;99.90;;;;;;5015783;28;20487;-61
2024/01/14 08:18:39;;;;;;;29.13;19.52;;;3.60;99.90;;;;;;5015612;28;20048;-61
2024/01/14 08:21:07;;;;;;;29.40;19.60;;;3.60;99.90;;;;;;5015673;28;20049;-61
2024/01/14 08:23:35;;;;;;;27.58;18.35;;;3.60;99.90;;;;;;5013961;28;20053;-61
2024/01/14 08:26:01;;;;;;;28.67;19.35;;;3.60;99.90;;;;;;5015614;28;20045;-60
2024/01/14 08:28:28;;;;;;;28.38;18.60;;;3.60;99.90;;;;;;5013940;28;20100;-60
2024/01/14 08:30:55;;;;;;;27.38;18.52;;;3.60;99.90;;;;;;5015167;28;20037;-60
2024/01/14 08:33:22;;;;;;;26.75;18.45;;;3.60;99.90;;;;;;5015186;28;20379;-60
2024/01/14 08:35:49;;;;;;;28.27;19.13;;;3.70;99.90;;;;;;5014099;28;20042;-60
2024/01/14 08:38:16;;;;;;;28.10;18.70;;;3.70;99.90;;;;;;5015339;28;20052;-60
2024/01/14 08:40:42;;;;;;;30.95;18.63;;;3.70;99.90;;;;;;5013840;28;20487;-60
2024/01/14 08:43:09;;;;;;;29.83;18.33;;;3.70;99.90;;;;;;5013593;28;20069;-60
2024/01/14 08:45:36;;;;;;;28.67;18.02;;;3.70;99.90;;;;;;5014672;28;20490;-60
2024/01/14 08:48:03;;;;;;;24.75;17.42;;;3.70;99.90;;;;;;5014909;28;20034;-61
2024/01/14 08:50:30;;;;;;;27.58;18.17;;;3.80;99.90;;;;;;5014030;28;20050;-61
2024/01/14 08:52:57;;;;;;;28.77;17.67;;;3.80;99.90;;;;;;5014221;28;20042;-60
2024/01/14 08:55:23;;;;;;;31.45;17.23;;;3.80;99.90;;;;;;5015038;28;20045;-60
2024/01/14 08:57:50;;;;;;;26.90;18.30;;;3.80;99.90;;;;;;5015259;28;20076;-60
2024/01/14 09:00:18;;;;;;;26.58;17.35;;;3.80;99.90;;;;;;5014983;28;20434;-60
2024/01/14 09:02:45;;;;;;;25.42;16.73;;;3.80;99.90;;;;;;5014586;28;20041;-60
2024/01/14 09:05:12;;;;;;;24.88;17.50;;;3.90;99.90;;;;;;5014378;28;20049;-60
2024/01/14 09:07:39;;;;;;;26.73;16.80;;;3.90;99.90;;;;;;5014945;28;20041;-60
2024/01/14 09:10:07;;;;;;;25.08;16.20;;;3.90;99.90;;;;;;5015222;28;20106;-63
2024/01/14 09:12:34;;;;;;;23.42;15.85;;;3.90;99.90;;;;;;5013954;28;20073;-65
2024/01/14 09:15:01;;;;;;;27.73;16.42;;;3.90;99.90;;;;;;5015056;28;20105;-65
2024/01/14 09:17:28;;;;;;;21.50;15.75;;;3.90;99.90;;;;;;5014657;28;20048;-65
2024/01/14 09:19:55;;;;;;;21.42;15.50;;;3.90;99.90;;;;;;5013134;28;20100;-65
2024/01/14 09:22:22;;;;;;;23.73;16.13;;;4.00;99.90;;;;;;5014291;28;20038;-65
2024/01/14 09:24:49;;;;;;;25.42;15.90;;;4.00;99.90;;;;;;5013042;28;20034;-66
2024/01/14 09:27:17;;;;;;;25.60;14.82;;;4.00;99.90;;;;;;5013168;28;20092;-66
2024/01/14 09:29:45;;;;;;;22.77;15.70;;;4.10;99.90;;;;;;5012892;28;20532;-66
2024/01/14 09:32:12;;;;;;;22.50;15.30;;;4.10;99.90;;;;;;5014143;28;20128;-65
2024/01/14 09:34:39;;;;;;;20.23;14.10;;;4.10;99.90;;;;;;4996598;28;20502;-65
2024/01/14 09:37:07;;;;;;;21.83;13.80;;;4.10;99.90;;;;;;5013940;28;20050;-66
2024/01/14 09:39:34;;;;;;;20.67;14.00;;;4.20;99.90;;;;;;5013265;28;20050;-66
2024/01/14 09:42:01;;;;;;;23.38;14.90;;;4.20;99.90;;;;;;5013736;28;20049;-65
2024/01/14 09:44:28;;;;;;;20.58;14.57;;;4.20;99.90;;;;;;5014141;28;20038;-66
2024/01/14 09:46:55;;;;;;;19.35;14.40;;;4.30;99.90;;;;;;5012595;28;20042;-66
2024/01/14 09:49:22;;;;;;;25.10;14.20;;;4.30;99.90;;;;;;5013717;28;20052;-66
2024/01/14 09:51:50;;;;;;;20.77;14.70;;;4.30;99.90;;;;;;5013810;28;20506;-64
2024/01/14 09:54:17;;;;;;;20.83;14.05;;;4.30;99.90;;;;;;5014053;28;20038;-65
2024/01/14 09:56:44;;;;;;;20.52;13.65;;;4.40;99.90;;;;;;5013640;28;20038;-65
2024/01/14 09:59:13;;;;;;;20.20;13.45;;;4.40;99.90;;;;;;4996382;28;20042;-62
2024/01/14 10:01:40;;;;;;;18.77;12.98;;;4.40;99.90;;;;;;5014156;28;20217;-61
2024/01/14 10:04:10;;;;;;;20.65;13.68;;;4.40;99.90;;;;;;5013714;28;20046;-62
2024/01/14 10:06:37;;;;;;;18.30;12.65;;;4.40;99.90;;;;;;5013996;28;20061;-61
2024/01/14 10:09:04;;;;;;;23.48;13.65;;;4.50;99.90;;;;;;5013450;28;20042;-62
2024/01/14 10:11:31;;;;;;;20.95;13.15;;;4.60;99.90;;;;;;5026494;28;20127;-62
2024/01/14 10:13:58;;;;;;;19.90;13.05;;;4.60;99.90;;;;;;5015269;28;20057;-62
2024/01/14 10:16:25;;;;;;;19.42;12.57;;;4.70;99.90;;;;;;5033188;28;20118;-62
2024/01/14 10:19:22;;;;;;;23.73;13.35;;;4.70;99.90;;;;;;5031920;28;20520;-62
2024/01/14 10:21:49;;;;;;;20.98;12.52;;;4.70;99.90;;;;;;5033112;28;20045;-61
2024/01/14 10:24:36;;;;;;;18.30;11.55;;;4.80;99.90;;;;;;5031797;28;20051;-64
2024/01/14 10:27:05;;;;;;;19.02;13.10;;;4.80;99.90;;;;;;5033250;28;20087;-64
2024/01/14 10:29:32;;;;;;;19.52;12.38;;;4.80;99.90;;;;;;5033505;28;20048;-64
2024/01/14 10:31:58;;;;;;;19.33;12.82;;;4.80;99.90;;;;;;5037594;28;20044;-60
2024/01/14 10:34:25;;;;;;;19.50;12.05;;;4.80;99.90;;;;;;5037248;28;20047;-60
2024/01/14 10:36:54;;;;;;;16.27;12.20;;;4.90;99.90;;;;;;5036312;28;20049;-60
2024/01/14 10:39:21;;;;;;;18.92;12.43;;;4.90;99.90;;;;;;5036501;28;20068;-61
2024/01/14 10:41:48;;;;;;;16.92;12.48;;;4.90;99.90;;;;;;5035200;28;20380;-60
2024/01/14 10:44:16;;;;;;;17.15;12.20;;;4.80;99.90;;;;;;5036576;28;20037;-60
2024/01/14 10:46:43;;;;;;;16.30;11.88;;;4.90;99.90;;;;;;5036571;28;20505;-60
2024/01/14 10:49:09;;;;;;;18.85;11.90;;;4.90;99.90;;;;;;5036642;28;20411;-60
2024/01/14 10:51:36;;;;;;;18.70;11.50;;;4.90;99.90;;;;;;5036568;28;20045;-59
2024/01/14 10:54:03;;;;;;;19.05;11.82;;;5.00;99.90;;;;;;5036308;28;20398;-60
2024/01/14 10:56:30;;;;;;;15.65;11.48;;;5.00;99.90;;;;;;5036455;28;20072;-60
2024/01/14 10:58:57;;;;;;;17.17;11.05;;;5.00;99.90;;;;;;5036046;28;20096;-60
2024/01/14 11:01:24;;;;;;;18.15;11.85;;;5.00;99.90;;;;;;5034461;28;20045;-59
2024/01/14 11:03:51;;;;;;;14.98;11.55;;;5.00;99.90;;;;;;5036583;28;20120;-59
2024/01/14 11:06:23;;;;;;;14.52;11.23;;;5.00;99.90;;;;;;5036325;28;20099;-60
2024/01/14 11:08:49;;;;;;;17.02;12.07;;;5.00;99.90;;;;;;5035796;28;20049;-63
2024/01/14 11:11:16;;;;;;;17.88;11.90;;;5.00;99.90;;;;;;5027962;28;20052;-64
2024/01/14 11:13:43;;;;;;;17.85;11.50;;;5.00;99.90;;;;;;5035596;28;20052;-66
2024/01/14 11:16:10;;;;;;;21.50;11.88;;;5.10;99.90;;;;;;5032556;28;20041;-67
2024/01/14 11:18:37;;;;;;;17.45;11.80;;;5.10;99.90;;;;;;5021268;28;20108;-65
2024/01/14 11:21:04;;;;;;;15.10;11.40;;;5.10;99.90;;;;;;5031452;28;20049;-65
2024/01/14 11:23:51;;;;;;;16.05;11.15;;;5.10;99.90;;;;;;5019202;28;20050;-65
2024/01/14 11:26:18;;;;;;;15.82;10.88;;;5.20;99.90;;;;;;5028838;28;20040;-65
2024/01/14 11:28:44;;;;;;;16.80;11.82;;;5.20;99.90;;;;;;5018041;28;20045;-65
2024/01/14 11:31:11;;;;;;;21.23;12.02;;;5.20;99.90;;;;;;5016122;28;20502;-66
2024/01/14 11:33:49;;;;;;;14.80;11.40;;;5.30;99.90;;;;;;5026500;28;20037;-65
2024/01/14 11:36:16;;;;;;;17.02;11.27;;;5.30;99.90;;;;;;5034845;28;20080;-66
2024/01/14 11:38:43;;;;;;;20.08;12.45;;;5.30;99.90;;;;;;5021489;28;20096;-66
2024/01/14 11:41:10;;;;;;;14.38;10.48;;;5.30;99.90;;;;;;5033880;28;20428;-66
2024/01/14 11:43:36;;;;;;;17.20;11.73;;;5.30;99.90;;;;;;5019049;28;20042;-66
2024/01/14 11:46:03;;;;;;;18.42;10.88;;;5.30;99.90;;;;;;5027206;28;20042;-66
2024/01/14 11:48:30;;;;;;;16.85;11.52;;;5.30;99.90;;;;;;5028920;28;20386;-66
2024/01/14 11:50:58;;;;;;;18.75;11.82;;;5.30;99.90;;;;;;5028077;28;20034;-65
2024/01/14 11:53:25;;;;;;;16.30;11.30;;;5.40;99.90;;;;;;5016345;28;20042;-65
2024/01/14 11:55:52;;;;;;;17.33;11.45;;;5.40;99.90;;;;;;5033977;28;20128;-65
2024/01/14 11:58:22;;;;;;;15.73;11.30;;;5.50;99.90;;;;;;5034751;28;20041;-65
2024/01/14 12:00:49;;;;;;;18.45;11.63;;;5.50;99.90;;;;;;5016041;28;20038;-65
2024/01/14 12:03:18;;;;;;;16.85;12.10;;;5.60;99.90;;;;;;5015738;28;20045;-65
2024/01/14 12:05:46;;;;;;;18.95;13.18;;;5.60;99.90;;;;;;5022321;28;20033;-63
2024/01/14 12:08:13;;;;;;;16.90;12.23;;;5.50;99.90;;;;;;5015412;28;20036;-63
2024/01/14 12:10:41;;;;;;;16.67;12.98;;;5.40;99.90;;;;;;5018962;28;20045;-63
2024/01/14 12:13:08;;;;;;;20.20;12.93;;;5.50;99.90;;;;;;5015213;28;20041;-63
2024/01/14 12:15:35;;;;;;;17.42;13.13;;;5.60;99.90;;;;;;5021992;28;20069;-64
2024/01/14 12:18:05;;;;;;;18.73;13.70;;;5.60;99.90;;;;;;5015140;28;20487;-65
2024/01/14 12:20:33;;;;;;;20.33;13.82;;;5.60;99.90;;;;;;5013235;28;20507;-65
2024/01/14 12:23:01;;;;;;;19.50;13.88;;;5.60;99.90;;;;;;5015013;28;20428;-64
2024/01/14 12:25:28;;;;;;;15.95;12.13;;;5.60;99.90;;;;;;5014303;28;20428;-64
2024/01/14 12:27:57;;;;;;;20.98;13.10;;;5.60;99.90;;;;;;5025434;28;20037;-64
2024/01/14 12:30:24;;;;;;;21.42;13.13;;;5.70;99.90;;;;;;5034584;28;20044;-64
2024/01/14 12:32:51;;;;;;;18.98;12.82;;;5.70;99.90;;;;;;5033409;28;20037;-64
2024/01/14 12:35:18;;;;;;;16.95;11.65;;;5.70;99.90;;;;;;5034162;28;20053;-64